createdAt,value
2022-08-21T00:02:03.763Z,99877.34
2022-08-21T00:04:57.394Z,99835.16
2022-08-21T00:07:48.674Z,99874.47
2022-08-21T00:10:44.964Z,99872.81
2022-08-21T00:13:32.867Z,99877.59
2022-08-21T00:16:20.899Z,99859.25
2022-08-21T00:19:09.961Z,99890.34
2022-08-21T00:21:56.719Z,99889.63
2022-08-21T00:24:43.137Z,99885.19
2022-08-21T00:27:29.813Z,99879.22
2022-08-21T00:30:22.927Z,99881.56
2022-08-21T00:33:17.359Z,99881.22
2022-08-21T00:36:04.591Z,99888.88
2022-08-21T00:38:51.733Z,99888.50
2022-08-21T00:41:41.719Z,99879.81
2022-08-21T00:44:29.675Z,99890.53
2022-08-21T00:47:20.858Z,99879.72
2022-08-21T00:50:10.655Z,99878.50
2022-08-21T00:53:08.364Z,99886.47
2022-08-21T00:55:56.599Z,99872.94
2022-08-21T00:58:44.433Z,99890.84
2022-08-21T01:01:32.974Z,99885.97
2022-08-21T01:04:19.962Z,99889.19
2022-08-21T01:07:09.379Z,99888.00
2022-08-21T01:09:56.842Z,99864.91
2022-08-21T01:12:46.799Z,99872.09
2022-08-21T01:15:41.008Z,99890.03
2022-08-21T01:18:28.983Z,99886.47
2022-08-21T01:21:27.909Z,99854.19
2022-08-21T01:24:15.808Z,99877.31
2022-08-21T01:27:03.478Z,99869.72
2022-08-21T01:29:53.836Z,99857.00
2022-08-21T01:32:40.902Z,99867.34
2022-08-21T01:35:29.707Z,99856.22
2022-08-21T01:38:16.702Z,99854.97
2022-08-21T01:41:03.287Z,99831.88
2022-08-21T01:43:49.371Z,99842.00
2022-08-21T01:46:36.488Z,99828.50
2022-08-21T01:49:23.295Z,99846.00
2022-08-21T01:52:10.446Z,99844.41
2022-08-21T01:54:57.279Z,99817.00
2022-08-21T01:57:44.406Z,99844.88
2022-08-21T02:00:30.420Z,99845.19
2022-08-21T02:03:26.310Z,99843.50
2022-08-21T02:06:22.308Z,99833.47
2022-08-21T02:09:11.415Z,99827.88
2022-08-21T02:11:57.658Z,99829.03
2022-08-21T02:14:44.150Z,99834.66
2022-08-21T02:17:39.473Z,99823.16
2022-08-21T02:20:32.492Z,99820.78
2022-08-21T02:23:20.000Z,99817.59
2022-08-21T02:26:13.550Z,99812.97
2022-08-21T02:29:00.494Z,99806.28
2022-08-21T02:31:47.185Z,99787.56
2022-08-21T02:34:36.023Z,99799.88
2022-08-21T02:37:29.329Z,99801.50
2022-08-21T02:40:18.920Z,99807.88
2022-08-21T02:43:10.465Z,99805.09
2022-08-21T02:45:59.233Z,99810.38
2022-08-21T02:48:47.368Z,99820.75
2022-08-21T02:51:33.576Z,99815.19
2022-08-21T02:54:20.496Z,99815.56
2022-08-21T02:57:06.615Z,99824.69
2022-08-21T02:59:54.188Z,99805.50
2022-08-21T03:02:41.333Z,99769.25
2022-08-21T03:05:30.114Z,99807.88
2022-08-21T03:08:16.277Z,99795.63
2022-08-21T03:11:02.734Z,99819.13
2022-08-21T03:13:51.160Z,99807.91
2022-08-21T03:16:41.201Z,99811.06
2022-08-21T03:19:27.707Z,99827.41
2022-08-21T03:22:14.100Z,99805.09
2022-08-21T03:25:02.252Z,99811.41
2022-08-21T03:27:59.211Z,99829.69
2022-08-21T03:30:53.151Z,99833.66
2022-08-21T03:33:39.389Z,99840.47
2022-08-21T03:36:27.016Z,99843.28
2022-08-21T03:39:15.227Z,99810.22
2022-08-21T03:42:04.340Z,99838.56
2022-08-21T03:44:53.470Z,99836.19
2022-08-21T03:47:53.219Z,99838.13
2022-08-21T03:50:50.345Z,99845.31
2022-08-21T03:53:37.483Z,99852.53
2022-08-21T03:56:28.005Z,99851.75
2022-08-21T03:59:18.403Z,99861.31
2022-08-21T04:02:08.301Z,99834.22
2022-08-21T04:04:55.145Z,99843.75
2022-08-21T04:07:42.322Z,99850.50
2022-08-21T04:10:35.284Z,99855.31
2022-08-21T04:13:30.291Z,99860.13
2022-08-21T04:16:20.842Z,99864.13
2022-08-21T04:19:09.078Z,99874.03
2022-08-21T04:22:00.609Z,99869.66
2022-08-21T04:24:49.428Z,99864.47
2022-08-21T04:27:38.247Z,99879.72
2022-08-21T04:30:27.596Z,99886.06
2022-08-21T04:33:15.511Z,99877.69
2022-08-21T04:36:07.129Z,99885.31
2022-08-21T04:38:57.045Z,99871.34
2022-08-21T04:41:46.425Z,99876.44
2022-08-21T04:44:34.275Z,99874.88
2022-08-21T04:47:22.265Z,99885.63
2022-08-21T04:50:57.409Z,99880.44
2022-08-21T04:53:56.251Z,99893.63
2022-08-21T04:56:47.056Z,99897.66
2022-08-21T04:59:45.942Z,99912.03
2022-08-21T05:02:34.968Z,99912.06
2022-08-21T05:05:30.310Z,99923.69
2022-08-21T05:08:24.468Z,99928.88
2022-08-21T05:11:12.126Z,99904.13
2022-08-21T05:14:05.982Z,99925.25
2022-08-21T05:16:53.244Z,99909.72
2022-08-21T05:19:43.106Z,99926.41
2022-08-21T05:22:30.267Z,99925.66
2022-08-21T05:25:17.545Z,99887.34
2022-08-21T05:28:13.183Z,99908.88
2022-08-21T05:31:01.183Z,99891.72
2022-08-21T05:33:52.494Z,99920.44
2022-08-21T05:36:47.178Z,99926.06
2022-08-21T05:40:20.082Z,99894.13
2022-08-21T05:42:44.648Z,99903.72
2022-08-21T05:45:44.224Z,99921.66
2022-08-21T05:48:30.929Z,99893.31
2022-08-21T05:51:17.962Z,99919.25
2022-08-21T05:54:04.528Z,99919.25
2022-08-21T05:56:51.039Z,99922.88
2022-08-21T05:59:38.967Z,99918.47
2022-08-21T06:02:26.390Z,99908.09
2022-08-21T06:05:14.046Z,99883.75
2022-08-21T06:08:09.128Z,99891.34
2022-08-21T06:10:57.964Z,99877.78
2022-08-21T06:13:45.157Z,99867.00
2022-08-21T06:16:33.999Z,99861.00
2022-08-21T06:19:21.113Z,99882.16
2022-08-21T06:22:11.155Z,99876.56
2022-08-21T06:25:08.077Z,99880.94
2022-08-21T06:28:02.085Z,99859.41
2022-08-21T06:30:49.915Z,99864.19
2022-08-21T06:33:37.061Z,99884.53
2022-08-21T06:36:26.453Z,99884.16
2022-08-21T06:39:16.419Z,99876.59
2022-08-21T06:42:19.307Z,99876.56
2022-08-21T06:45:07.015Z,99882.50
2022-08-21T06:47:54.070Z,99869.34
2022-08-21T06:50:43.161Z,99884.91
2022-08-21T06:53:30.437Z,99884.13
2022-08-21T06:56:17.135Z,99886.16
2022-08-21T06:59:04.104Z,99885.34
2022-08-21T07:01:54.159Z,99895.31
2022-08-21T07:04:41.186Z,99894.53
2022-08-21T07:07:28.970Z,99904.50
2022-08-21T07:10:15.876Z,99894.50
2022-08-21T07:13:09.128Z,99903.25
2022-08-21T07:16:01.633Z,99901.25
2022-08-21T07:18:50.835Z,99889.69
2022-08-21T07:21:37.979Z,99918.78
2022-08-21T07:24:24.861Z,99913.22
2022-08-21T07:27:11.949Z,99915.59
2022-08-21T07:29:59.134Z,99902.25
2022-08-21T07:32:46.014Z,99920.97
2022-08-21T07:35:34.342Z,99931.28
2022-08-21T07:38:20.995Z,99930.50
2022-08-21T07:41:29.575Z,99925.84
2022-08-21T07:44:15.970Z,99902.59
2022-08-21T07:47:02.784Z,99923.41
2022-08-21T07:49:49.872Z,99930.56
2022-08-21T07:52:36.704Z,99906.63
2022-08-21T07:55:24.180Z,99910.13
2022-08-21T07:58:10.823Z,99922.91
2022-08-21T08:00:58.125Z,99924.13
2022-08-21T08:03:46.493Z,99926.88
2022-08-21T08:06:34.573Z,99916.88
2022-08-21T08:09:20.834Z,99894.88
2022-08-21T08:12:08.492Z,99912.47
2022-08-21T08:14:55.067Z,99914.84
2022-08-21T08:17:41.791Z,99913.72
2022-08-21T08:20:30.742Z,99913.00
2022-08-21T08:23:23.942Z,99917.44
2022-08-21T08:26:10.803Z,99917.81
2022-08-21T08:28:57.942Z,99925.00
2022-08-21T08:31:45.923Z,99922.59
2022-08-21T08:34:35.866Z,99921.16
2022-08-21T08:37:25.328Z,99926.72
2022-08-21T08:40:54.287Z,99936.69
2022-08-21T08:43:57.988Z,99940.63
2022-08-21T08:46:53.628Z,99939.47
2022-08-21T08:50:20.669Z,99935.38
2022-08-21T08:53:29.930Z,99939.34
2022-08-21T08:56:30.317Z,99932.59
2022-08-21T08:59:20.880Z,99921.81
2022-08-21T09:02:08.664Z,99931.00
2022-08-21T09:04:55.941Z,99931.75
2022-08-21T09:08:18.577Z,99928.91
2022-08-21T09:11:17.075Z,99936.94
2022-08-21T09:14:13.019Z,99938.97
2022-08-21T09:17:12.368Z,99931.38
2022-08-21T09:20:45.554Z,99929.00
2022-08-21T09:23:37.413Z,99926.63
2022-08-21T09:26:29.303Z,99931.41
2022-08-21T09:29:24.066Z,99926.19
2022-08-21T09:32:18.042Z,99932.50
2022-08-21T09:35:14.941Z,99913.81
2022-08-21T09:38:12.405Z,99939.78
2022-08-21T09:41:07.707Z,99939.34
2022-08-21T09:43:55.701Z,99954.06
2022-08-21T09:46:55.830Z,99953.16
2022-08-21T09:49:50.375Z,99952.44
2022-08-21T09:53:07.991Z,99963.75
2022-08-21T09:56:25.445Z,99966.00
2022-08-21T09:59:20.790Z,99973.06
2022-08-21T10:02:27.568Z,99967.97
2022-08-21T10:05:26.995Z,99963.09
2022-08-21T10:08:37.006Z,99983.88
2022-08-21T10:11:34.750Z,99988.66
2022-08-21T10:14:45.888Z,99994.53
2022-08-21T10:17:37.581Z,99970.44
2022-08-21T10:20:35.491Z,99972.97
2022-08-21T10:23:28.753Z,99993.75
2022-08-21T10:26:37.424Z,99970.41
2022-08-21T10:29:45.555Z,99972.31
2022-08-21T10:32:51.730Z,99999.81
2022-08-21T10:35:46.193Z,99994.78
2022-08-21T10:38:55.376Z,99991.91
2022-08-21T10:42:12.781Z,100000.19
2022-08-21T10:45:12.568Z,99994.66
2022-08-21T10:48:10.017Z,99973.38
2022-08-21T10:51:16.737Z,99960.66
2022-08-21T10:54:31.547Z,99927.88
2022-08-21T10:57:32.363Z,99950.72
2022-08-21T11:00:25.873Z,99957.16
2022-08-21T11:03:17.009Z,99943.16
2022-08-21T11:06:14.774Z,99946.09
2022-08-21T11:09:16.419Z,99930.06
2022-08-21T11:12:27.688Z,99939.81
2022-08-21T11:15:29.005Z,99927.13
2022-08-21T11:18:32.611Z,99927.44
2022-08-21T11:21:46.696Z,99930.13
2022-08-21T11:24:45.550Z,99932.03
2022-08-21T11:27:47.036Z,99908.59
2022-08-21T11:31:00.476Z,99935.91
2022-08-21T11:33:56.597Z,99930.94
2022-08-21T11:36:55.357Z,99939.06
2022-08-21T11:39:50.222Z,99946.66
2022-08-21T11:42:56.597Z,99944.22
2022-08-21T11:45:51.549Z,99947.81
2022-08-21T11:48:39.308Z,99950.25
2022-08-21T11:51:54.516Z,99949.88
2022-08-21T11:54:51.022Z,99956.63
2022-08-21T11:57:51.614Z,99933.78
2022-08-21T12:00:59.665Z,99965.00
2022-08-21T12:04:22.489Z,99962.66
2022-08-21T12:07:33.432Z,99939.81
2022-08-21T12:10:33.429Z,99973.44
2022-08-21T12:13:40.181Z,99955.00
2022-08-21T12:16:41.592Z,99938.88
2022-08-21T12:19:32.260Z,99956.84
2022-08-21T12:22:18.277Z,99945.22
2022-08-21T12:25:10.417Z,99948.88
2022-08-21T12:28:09.483Z,99949.78
2022-08-21T12:30:58.197Z,99940.53
2022-08-21T12:33:52.449Z,99942.91
2022-08-21T12:36:51.359Z,99940.13
2022-08-21T12:39:40.543Z,99939.69
2022-08-21T12:42:41.226Z,99941.31
2022-08-21T12:45:34.427Z,99933.69
2022-08-21T12:48:32.368Z,99949.16
2022-08-21T12:51:37.698Z,99945.53
2022-08-21T12:54:30.469Z,99929.50
2022-08-21T12:57:24.289Z,99959.50
2022-08-21T13:00:15.304Z,99932.66
2022-08-21T13:03:02.271Z,99961.72
2022-08-21T13:05:49.352Z,99964.94
2022-08-21T13:08:40.895Z,99932.63
2022-08-21T13:11:33.790Z,99954.97
2022-08-21T13:14:35.366Z,99965.69
2022-08-21T13:17:35.256Z,99964.91
2022-08-21T13:20:29.168Z,99960.00
2022-08-21T13:23:34.514Z,99966.06
2022-08-21T13:26:22.512Z,99957.75
2022-08-21T13:29:12.225Z,99959.00
2022-08-21T13:32:03.483Z,99978.28
2022-08-21T13:34:56.030Z,99971.56
2022-08-21T13:37:44.217Z,99951.63
2022-08-21T13:40:45.293Z,99982.06
2022-08-21T13:43:35.101Z,99986.88
2022-08-21T13:46:23.492Z,99989.00
2022-08-21T13:49:11.039Z,100000.22
2022-08-21T13:51:57.332Z,99998.09
2022-08-21T13:54:45.947Z,99999.66
2022-08-21T13:57:34.416Z,100006.19
2022-08-21T14:00:28.058Z,100009.34
2022-08-21T14:03:36.254Z,99985.88
2022-08-21T14:06:24.294Z,100009.69
2022-08-21T14:09:26.046Z,100008.97
2022-08-21T14:12:26.246Z,100014.59
2022-08-21T14:15:19.623Z,100017.94
2022-08-21T14:18:18.850Z,100019.66
2022-08-21T14:21:10.285Z,100027.91
2022-08-21T14:24:05.949Z,100027.84
2022-08-21T14:26:56.049Z,100032.19
2022-08-21T14:29:44.535Z,100025.78
2022-08-21T14:32:39.001Z,100035.97
2022-08-21T14:35:32.220Z,100013.56
2022-08-21T14:38:26.054Z,100045.53
2022-08-21T14:41:24.830Z,100047.16
2022-08-21T14:44:11.281Z,100045.16
2022-08-21T14:46:59.302Z,100047.78
2022-08-21T14:49:49.949Z,100048.53
2022-08-21T14:52:37.201Z,100041.59
2022-08-21T14:55:24.354Z,100023.66
2022-08-21T14:58:11.221Z,100047.59
2022-08-21T15:00:59.163Z,100050.25
2022-08-21T15:03:47.013Z,100041.03
2022-08-21T15:06:34.939Z,100026.31
2022-08-21T15:09:21.133Z,100015.69
2022-08-21T15:12:09.031Z,100004.94
2022-08-21T15:14:56.067Z,99999.47
2022-08-21T15:17:47.729Z,100007.03
2022-08-21T15:20:35.098Z,100035.28
2022-08-21T15:23:23.047Z,100040.78
2022-08-21T15:26:10.056Z,100036.97
2022-08-21T15:29:01.212Z,100034.69
2022-08-21T15:31:58.078Z,100047.22
2022-08-21T15:34:46.967Z,100007.28
2022-08-21T15:37:33.911Z,100052.88
2022-08-21T15:40:21.036Z,100048.94
2022-08-21T15:43:08.119Z,100046.03
2022-08-21T15:45:55.398Z,100016.47
2022-08-21T15:48:42.033Z,100028.78
2022-08-21T15:51:29.066Z,100044.19
2022-08-21T15:54:16.082Z,100050.75
2022-08-21T15:57:03.108Z,100050.78
2022-08-21T15:59:55.827Z,100058.00
2022-08-21T16:02:47.940Z,100056.50
2022-08-21T16:05:34.852Z,100040.78
2022-08-21T16:08:22.490Z,100043.34
2022-08-21T16:11:08.814Z,100054.84
2022-08-21T16:13:57.078Z,100048.72
2022-08-21T16:16:44.420Z,100058.22
2022-08-21T16:19:32.902Z,100053.13
2022-08-21T16:22:19.813Z,100059.88
2022-08-21T16:25:06.992Z,100066.13
2022-08-21T16:27:59.319Z,100066.63
2022-08-21T16:30:50.017Z,100070.25
2022-08-21T16:33:48.795Z,100073.84
2022-08-21T16:36:36.020Z,100071.84
2022-08-21T16:39:22.760Z,100072.22
2022-08-21T16:42:15.857Z,100074.53
2022-08-21T16:45:10.883Z,100068.91
2022-08-21T16:47:57.933Z,100081.34
2022-08-21T16:50:49.118Z,100081.44
2022-08-21T16:53:43.778Z,100091.91
2022-08-21T16:56:31.048Z,100089.34
2022-08-21T16:59:17.890Z,100083.03
2022-08-21T17:02:05.798Z,100082.25
2022-08-21T17:04:53.091Z,100085.03
2022-08-21T17:07:40.125Z,100101.72
2022-08-21T17:10:31.770Z,100097.38
2022-08-21T17:13:22.753Z,100093.56
2022-08-21T17:16:13.004Z,100107.50
2022-08-21T17:19:00.741Z,100098.41
2022-08-21T17:21:47.816Z,100092.47
2022-08-21T17:24:38.062Z,100103.19
2022-08-21T17:27:29.126Z,100116.44
2022-08-21T17:30:16.810Z,100095.00
2022-08-21T17:33:07.962Z,100086.44
2022-08-21T17:35:54.847Z,100090.88
2022-08-21T17:38:41.772Z,100119.13
2022-08-21T17:41:28.731Z,100127.16
2022-08-21T17:44:18.701Z,100113.22
2022-08-21T17:47:14.928Z,100112.66
2022-08-21T17:50:01.984Z,100114.66
2022-08-21T17:52:49.097Z,100115.44
2022-08-21T17:55:37.212Z,100112.00
2022-08-21T17:58:28.657Z,100113.91
2022-08-21T18:01:17.726Z,100106.19
2022-08-21T18:04:07.659Z,100103.50
2022-08-21T18:06:55.497Z,100113.78
2022-08-21T18:09:41.571Z,100090.84
2022-08-21T18:12:28.615Z,100089.00
2022-08-21T18:15:16.465Z,100123.28
2022-08-21T18:18:06.373Z,100121.88
2022-08-21T18:20:53.980Z,100124.22
2022-08-21T18:23:43.756Z,100103.91
2022-08-21T18:26:31.885Z,100125.34
2022-08-21T18:29:28.124Z,100134.97
2022-08-21T18:32:31.212Z,100106.63
2022-08-21T18:35:18.327Z,100104.66
2022-08-21T18:38:04.805Z,100128.13
2022-08-21T18:40:55.888Z,100124.03
2022-08-21T18:43:42.204Z,100129.56
2022-08-21T18:46:29.921Z,100112.44
2022-08-21T18:49:15.791Z,100139.66
2022-08-21T18:52:03.249Z,100138.38
2022-08-21T18:54:50.222Z,100115.06
2022-08-21T18:57:37.780Z,100133.13
2022-08-21T19:00:27.572Z,100138.03
2022-08-21T19:03:15.901Z,100143.59
2022-08-21T19:09:14.930Z,100142.28
2022-08-21T19:12:03.135Z,100137.91
2022-08-21T19:14:50.216Z,100145.66
2022-08-21T19:17:40.019Z,100145.50
2022-08-21T19:20:30.937Z,100113.00
2022-08-21T19:23:17.949Z,100130.34
2022-08-21T19:26:06.781Z,100143.22
2022-08-21T19:28:59.628Z,100103.00
2022-08-21T19:31:48.152Z,100132.59
2022-08-21T19:34:36.210Z,100087.25
2022-08-21T19:37:22.437Z,100098.06
2022-08-21T19:40:09.972Z,100125.97
2022-08-21T19:42:57.131Z,100126.34
2022-08-21T19:45:46.816Z,100106.69
2022-08-21T19:48:34.222Z,100137.72
2022-08-21T19:51:21.457Z,100130.94
2022-08-21T19:54:12.504Z,100134.09
2022-08-21T19:56:59.845Z,100121.69
2022-08-21T19:59:50.138Z,100143.75
2022-08-21T20:02:37.085Z,100134.34
2022-08-21T20:05:23.756Z,100135.41
2022-08-21T20:11:22.855Z,100126.97
2022-08-21T20:14:12.871Z,100132.66
2022-08-21T20:17:10.443Z,100130.50
2022-08-21T20:19:57.789Z,100091.34
2022-08-21T20:22:44.761Z,100090.19
2022-08-21T20:25:32.708Z,100124.22
2022-08-21T20:28:20.717Z,100131.91
2022-08-21T20:31:09.415Z,100130.69
2022-08-21T20:33:55.979Z,100142.41
2022-08-21T20:36:42.308Z,100136.22
2022-08-21T20:39:30.152Z,100144.59
2022-08-21T20:42:16.595Z,100148.13
2022-08-21T20:45:08.389Z,100157.13
2022-08-21T20:47:58.954Z,100160.69
2022-08-21T20:50:49.332Z,100158.63
2022-08-21T20:54:12.922Z,100155.88
2022-08-21T20:57:22.072Z,100142.88
2022-08-21T21:00:14.888Z,100154.44
2022-08-21T21:03:09.980Z,100156.16
2022-08-21T21:06:01.981Z,100157.00
2022-08-21T21:09:16.782Z,100159.38
2022-08-21T21:12:05.742Z,100156.84
2022-08-21T21:14:55.934Z,100162.94
2022-08-21T21:18:07.264Z,100150.53
2022-08-21T21:21:08.668Z,100160.19
2022-08-21T21:24:07.573Z,100128.47
2022-08-21T21:26:54.919Z,100152.19
2022-08-21T21:29:53.916Z,100153.31
2022-08-21T21:32:41.817Z,100152.00
2022-08-21T21:35:36.557Z,100146.03
2022-08-21T21:38:33.362Z,100143.22
2022-08-21T21:41:54.292Z,100129.13
2022-08-21T21:45:07.556Z,100151.28
2022-08-21T21:48:23.673Z,100142.44
2022-08-21T21:51:16.708Z,100152.94
2022-08-21T21:54:17.519Z,100125.91
2022-08-21T21:57:16.253Z,100156.06
2022-08-21T22:00:18.244Z,100150.38
2022-08-21T22:03:15.690Z,100148.69
2022-08-21T22:06:20.432Z,100152.63
2022-08-21T22:09:16.727Z,100149.06
2022-08-21T22:12:23.532Z,100141.56
2022-08-21T22:15:11.918Z,100140.41
2022-08-21T22:18:03.199Z,100151.75
2022-08-21T22:20:58.489Z,100147.09
2022-08-21T22:23:48.413Z,100149.38
2022-08-21T22:26:45.704Z,100142.31
2022-08-21T22:29:49.851Z,100136.47
2022-08-21T22:32:48.295Z,100145.13
2022-08-21T22:35:39.580Z,100130.09
2022-08-21T22:38:33.867Z,100115.38
2022-08-21T22:41:28.690Z,100127.31
2022-08-21T22:44:29.792Z,100129.06
2022-08-21T22:47:22.605Z,100107.22
2022-08-21T22:50:21.782Z,100131.56
2022-08-21T22:53:10.444Z,100104.22
2022-08-21T22:56:00.539Z,100123.09
2022-08-21T22:58:57.988Z,100107.44
2022-08-21T23:01:45.486Z,100120.25
2022-08-21T23:04:31.767Z,100104.38
2022-08-21T23:07:43.632Z,100126.28
2022-08-21T23:10:37.744Z,100109.59
2022-08-21T23:13:24.395Z,100122.03
2022-08-21T23:16:28.706Z,100120.13
2022-08-21T23:19:24.434Z,100125.41
2022-08-21T23:22:29.668Z,100129.41
2022-08-21T23:25:34.729Z,100121.31
2022-08-21T23:28:55.363Z,100125.75
2022-08-21T23:32:24.590Z,100122.47
2022-08-21T23:35:21.468Z,100122.56
2022-08-21T23:38:35.383Z,100113.63
2022-08-21T23:41:39.493Z,100117.09
2022-08-21T23:44:37.322Z,100104.16
2022-08-21T23:47:30.298Z,100122.16
2022-08-21T23:50:31.386Z,100120.13
2022-08-21T23:53:33.789Z,100114.81
2022-08-21T23:56:36.523Z,100106.31
2022-08-21T23:59:33.433Z,100088.63
